createdAt,value
2023-02-09T00:11:00.003Z,5.00
2023-02-09T00:13:28.432Z,5.10
2023-02-09T01:02:37.671Z,4.50
2023-02-09T01:05:05.907Z,4.50
2023-02-09T01:21:03.410Z,4.20
2023-02-09T01:53:06.783Z,4.00
2023-02-09T01:55:35.593Z,4.00
2023-02-09T04:24:22.170Z,3.10
2023-02-09T05:31:51.409Z,2.80
2023-02-09T05:37:14.791Z,2.80
2023-02-09T05:45:05.497Z,2.90
2023-02-09T05:47:34.295Z,2.90
2023-02-09T05:58:08.122Z,2.90
2023-02-09T06:00:58.413Z,2.80
2023-02-09T06:09:09.330Z,2.90
2023-02-09T06:23:02.385Z,3.00
2023-02-09T06:36:42.256Z,2.90
2023-02-09T06:39:10.385Z,2.90
2023-02-09T06:47:47.850Z,2.80
2023-02-09T06:56:16.675Z,2.90
2023-02-09T06:59:04.337Z,3.00
2023-02-09T07:09:42.509Z,3.00
2023-02-09T07:20:36.125Z,2.90
2023-02-09T07:29:10.566Z,2.90
2023-02-09T07:34:47.950Z,2.80
2023-02-09T07:37:15.251Z,2.90
2023-02-09T07:52:06.982Z,2.90
2023-02-09T07:54:33.833Z,2.90
2023-02-09T07:57:00.682Z,3.00
2023-02-09T07:59:27.557Z,3.00
2023-02-09T08:01:54.410Z,3.10
2023-02-09T08:04:21.564Z,3.00
2023-02-09T08:06:48.465Z,3.10
2023-02-09T08:09:16.668Z,3.10
2023-02-09T08:11:47.095Z,3.20
2023-02-09T08:28:43.244Z,4.00
2023-02-09T08:31:15.116Z,4.00
2023-02-09T08:33:42.672Z,4.00
2023-02-09T08:36:15.946Z,4.10
2023-02-09T08:50:21.732Z,4.30
2023-02-09T08:53:23.822Z,4.50
2023-02-09T09:02:25.482Z,5.10
2023-02-09T09:04:52.446Z,5.50
2023-02-09T09:07:19.650Z,5.90
2023-02-09T09:09:46.486Z,6.40
2023-02-09T09:12:13.357Z,6.90
2023-02-09T09:14:40.682Z,7.40
2023-02-09T09:17:07.520Z,7.80
2023-02-09T09:19:34.453Z,7.80
2023-02-09T09:22:03.596Z,7.90
2023-02-09T09:24:31.470Z,8.00
2023-02-09T09:27:02.991Z,8.10
2023-02-09T09:29:29.887Z,8.20
2023-02-09T09:31:56.745Z,8.30
2023-02-09T09:34:23.709Z,8.40
2023-02-09T09:36:50.631Z,8.30
2023-02-09T09:39:18.826Z,8.30
2023-02-09T09:41:47.095Z,8.30
2023-02-09T09:44:16.573Z,8.30
2023-02-09T09:46:45.404Z,8.40
2023-02-09T09:49:19.713Z,8.30
2023-02-09T09:51:47.885Z,8.10
2023-02-09T09:54:21.166Z,8.00
2023-02-09T09:56:48.498Z,7.80
2023-02-09T09:59:18.938Z,7.60
2023-02-09T10:01:46.258Z,7.50
2023-02-09T10:04:15.762Z,7.40
2023-02-09T10:06:49.900Z,7.30
2023-02-09T10:09:34.070Z,7.20
2023-02-09T10:12:07.760Z,7.30
2023-02-09T10:14:44.724Z,7.20
2023-02-09T10:17:12.806Z,7.20
2023-02-09T10:19:42.011Z,7.10
2023-02-09T10:22:14.093Z,7.10
2023-02-09T10:24:50.177Z,7.10
2023-02-09T10:27:44.959Z,7.20
2023-02-09T10:30:41.628Z,7.20
2023-02-09T10:36:58.654Z,7.40
2023-02-09T10:39:34.869Z,7.50
2023-02-09T10:45:28.890Z,7.60
2023-02-09T10:48:06.915Z,7.60
2023-02-09T10:56:29.284Z,7.80
2023-02-09T10:59:25.223Z,7.80
2023-02-09T11:02:23.060Z,7.90
2023-02-09T11:14:01.426Z,8.00
2023-02-09T11:32:32.612Z,8.60
2023-02-09T11:37:59.689Z,9.20
2023-02-09T11:51:42.864Z,9.40
2023-02-09T11:54:25.102Z,9.40
2023-02-09T12:13:40.533Z,10.80
2023-02-09T12:18:55.450Z,11.30
2023-02-09T12:35:34.921Z,11.80
2023-02-09T12:41:12.613Z,11.20
2023-02-09T12:50:32.862Z,10.60
2023-02-09T12:59:22.926Z,10.20
2023-02-09T13:08:20.540Z,9.70
2023-02-09T13:10:51.558Z,9.60
2023-02-09T13:13:39.531Z,9.50
2023-02-09T13:19:47.308Z,9.70
2023-02-09T13:25:09.893Z,9.50
2023-02-09T13:33:01.852Z,9.30
2023-02-09T13:38:35.873Z,9.30
2023-02-09T14:13:30.154Z,9.50
2023-02-09T14:21:19.213Z,9.30
2023-02-09T14:23:50.881Z,9.30
2023-02-09T14:47:47.231Z,9.20
2023-02-09T14:50:17.389Z,9.10
2023-02-09T14:52:47.893Z,9.20
2023-02-09T14:55:19.335Z,9.20
2023-02-09T14:57:46.209Z,9.20
2023-02-09T15:00:16.290Z,9.10
2023-02-09T15:02:43.339Z,9.10
2023-02-09T15:05:10.462Z,9.10
2023-02-09T15:07:39.427Z,9.10
2023-02-09T15:10:07.728Z,9.10
2023-02-09T15:12:34.563Z,9.10
2023-02-09T15:15:01.740Z,9.20
2023-02-09T15:17:29.427Z,9.20
2023-02-09T15:19:56.875Z,9.20
2023-02-09T15:22:24.015Z,9.20
2023-02-09T15:24:54.266Z,9.10
2023-02-09T15:27:24.825Z,9.10
2023-02-09T15:29:52.225Z,9.20
2023-02-09T15:32:20.010Z,9.20
2023-02-09T15:34:46.883Z,9.20
2023-02-09T15:43:00.033Z,9.10
2023-02-09T15:45:47.343Z,9.10
2023-02-09T15:48:14.738Z,9.10
2023-02-09T16:01:17.810Z,9.20
2023-02-09T16:09:27.358Z,9.10
2023-02-09T16:22:41.317Z,9.00
2023-02-09T16:25:24.974Z,8.90
2023-02-09T16:27:52.875Z,8.90
2023-02-09T16:30:27.085Z,8.80
2023-02-09T16:32:54.223Z,8.90
2023-02-09T16:35:21.694Z,8.80
2023-02-09T16:37:49.875Z,8.70
2023-02-09T16:40:16.592Z,8.60
2023-02-09T16:42:43.795Z,8.60
2023-02-09T16:45:14.031Z,8.50
2023-02-09T16:47:45.881Z,8.50
2023-02-09T16:50:23.788Z,8.50
2023-02-09T16:53:01.009Z,8.40
2023-02-09T16:55:29.101Z,8.30
2023-02-09T16:57:57.269Z,8.20
2023-02-09T17:00:32.209Z,8.20
2023-02-09T17:03:04.837Z,8.10
2023-02-09T17:05:32.840Z,8.10
2023-02-09T17:08:01.232Z,8.10
2023-02-09T17:10:32.554Z,8.10
2023-02-09T17:13:01.801Z,8.10
2023-02-09T17:15:31.735Z,8.10
2023-02-09T17:18:04.817Z,8.20
2023-02-09T17:20:41.142Z,8.20
2023-02-09T17:23:11.459Z,8.10
2023-02-09T17:25:38.520Z,8.20
2023-02-09T17:28:12.635Z,8.10
2023-02-09T17:30:41.773Z,8.20
2023-02-09T17:33:16.288Z,8.20
2023-02-09T17:36:17.544Z,8.20
2023-02-09T17:38:31.243Z,8.10
2023-02-09T17:40:59.413Z,8.10
2023-02-09T17:43:26.596Z,8.20
2023-02-09T17:45:54.154Z,8.20
2023-02-09T17:48:21.655Z,8.30
2023-02-09T17:50:49.705Z,8.30
2023-02-09T17:53:18.168Z,8.20
2023-02-09T17:55:45.663Z,8.20
2023-02-09T17:58:13.088Z,8.20
2023-02-09T18:00:40.493Z,8.20
2023-02-09T18:03:07.493Z,8.20
2023-02-09T18:05:36.016Z,8.20
2023-02-09T18:08:02.869Z,8.20
2023-02-09T18:10:29.673Z,8.30
2023-02-09T18:12:57.387Z,8.30
2023-02-09T18:15:28.656Z,8.30
2023-02-09T18:17:56.647Z,8.30
2023-02-09T18:20:25.193Z,8.20
2023-02-09T18:22:52.516Z,8.30
2023-02-09T18:25:21.912Z,8.20
2023-02-09T18:27:48.818Z,8.20
2023-02-09T18:30:15.830Z,8.30
2023-02-09T18:32:42.644Z,8.40
2023-02-09T18:35:12.715Z,8.30
2023-02-09T18:37:39.541Z,8.40
2023-02-09T18:40:06.434Z,8.30
2023-02-09T18:42:33.227Z,8.30
2023-02-09T18:45:00.045Z,8.20
2023-02-09T18:47:27.775Z,8.10
2023-02-09T18:58:45.028Z,7.80
2023-02-09T19:01:22.072Z,7.80
2023-02-09T19:07:15.156Z,7.60
2023-02-09T19:09:52.012Z,7.50
2023-02-09T19:12:24.150Z,7.40
2023-02-09T19:18:05.650Z,7.40
2023-02-09T19:20:51.340Z,7.20
2023-02-09T19:23:42.938Z,7.20
2023-02-09T19:34:18.285Z,7.20
2023-02-09T19:36:45.402Z,7.20
2023-02-09T19:39:12.283Z,7.20
2023-02-09T19:41:39.120Z,7.20
2023-02-09T19:44:06.382Z,7.20
2023-02-09T19:46:33.642Z,7.20
2023-02-09T19:49:01.120Z,7.10
2023-02-09T19:51:27.930Z,7.10
2023-02-09T19:53:54.720Z,7.10
2023-02-09T19:56:23.565Z,7.10
2023-02-09T19:58:50.603Z,7.10
2023-02-09T20:01:18.250Z,7.10
2023-02-09T20:03:45.130Z,7.10
2023-02-09T20:06:13.215Z,7.10
2023-02-09T20:08:40.169Z,7.20
2023-02-09T20:11:07.923Z,7.20
2023-02-09T20:13:35.406Z,7.30
2023-02-09T20:16:07.148Z,7.20
2023-02-09T20:18:38.544Z,7.10
2023-02-09T20:21:09.506Z,7.00
2023-02-09T20:23:37.187Z,6.80
2023-02-09T20:26:18.446Z,6.70
2023-02-09T20:29:03.170Z,6.70
2023-02-09T20:34:12.690Z,6.50
2023-02-09T20:36:40.898Z,6.50
2023-02-09T20:39:10.113Z,6.40
2023-02-09T20:41:37.037Z,6.40
2023-02-09T20:44:22.696Z,6.50
2023-02-09T20:46:55.580Z,6.60
2023-02-09T20:49:23.716Z,6.60
2023-02-09T20:51:50.496Z,6.50
2023-02-09T20:54:23.777Z,6.50
2023-02-09T20:57:10.831Z,6.60
2023-02-09T20:59:37.815Z,6.60
2023-02-09T21:02:06.190Z,6.60
2023-02-09T21:07:26.231Z,6.70
2023-02-09T21:13:09.595Z,6.60
2023-02-09T21:15:41.164Z,6.60
2023-02-09T21:18:08.060Z,6.60
2023-02-09T21:20:35.286Z,6.50
2023-02-09T21:23:02.197Z,6.50
2023-02-09T21:25:29.054Z,6.40
2023-02-09T21:27:56.080Z,6.50
2023-02-09T21:30:23.028Z,6.50
2023-02-09T21:33:04.520Z,6.50
2023-02-09T21:35:54.851Z,6.50
2023-02-09T21:47:38.302Z,6.20
2023-02-09T21:50:06.281Z,6.20
2023-02-09T22:03:11.325Z,6.20
2023-02-09T22:05:38.167Z,6.30
2023-02-09T22:08:05.850Z,6.30
2023-02-09T22:10:42.680Z,6.40
2023-02-09T22:13:12.065Z,6.50
2023-02-09T22:23:38.766Z,6.60
2023-02-09T22:26:09.254Z,6.60
2023-02-09T22:28:40.068Z,6.60
2023-02-09T22:31:11.294Z,6.70
2023-02-09T22:33:40.156Z,6.80
2023-02-09T22:36:08.773Z,6.80
2023-02-09T22:38:36.721Z,6.90
2023-02-09T22:41:07.350Z,6.80
2023-02-09T22:46:48.519Z,6.80
2023-02-09T22:49:19.568Z,6.80
2023-02-09T22:57:10.471Z,6.60
2023-02-09T22:59:37.970Z,6.60
2023-02-09T23:02:05.235Z,6.60
2023-02-09T23:04:36.627Z,6.50
2023-02-09T23:24:53.772Z,6.50
2023-02-09T23:37:13.591Z,6.50
2023-02-09T23:40:17.166Z,6.50
2023-02-09T23:45:27.620Z,6.40
2023-02-09T23:54:35.939Z,6.40
2023-02-09T23:57:32.362Z,6.40
